Nakskov, Denmark
Current Conditions -  °F | °C
As of 12:50 PM on Monday 22 Dec 2014 (Local Time) from EDHK Reporting Station
Light Rain Light Rain  
Wind Chill: 50°   Ceiling: 600
Heat Index: 50°   Visibility: 4mi
Dew Point: 48°   Wind: 25mph
Humidity: 94%   Direction: 260°W
Pressure: 29.59"   Gusts: NA
Location:  54.84°N, 11.13°E
Report Text: EDHK 221150Z 26022KT 6000 -RA BKN006 OVC012 10/09 Q1002
Loading
Personal Weather Stations






























Interactive Weather Map New forecast layout! Learn more

10-Day Weather Forecast

Advertisements
Track Severe Weather on mobile